createdAt,value
2022-08-05T00:01:49.581Z,3.47
2022-08-05T00:04:18.811Z,3.63
2022-08-05T00:06:51.757Z,3.75
2022-08-05T00:09:20.243Z,3.60
2022-08-05T00:11:55.649Z,3.60
2022-08-05T00:14:27.728Z,3.60
2022-08-05T00:16:57.835Z,4.05
2022-08-05T00:19:33.337Z,3.75
2022-08-05T00:22:11.504Z,3.80
2022-08-05T00:24:42.250Z,3.80
2022-08-05T00:27:16.790Z,3.63
2022-08-05T00:32:15.358Z,3.70
2022-08-05T00:35:04.389Z,4.20
2022-08-05T00:37:53.399Z,3.72
2022-08-05T00:40:28.387Z,3.80
2022-08-05T00:42:59.600Z,3.97
2022-08-05T00:45:43.186Z,4.47
2022-08-05T00:48:31.183Z,4.15
2022-08-05T00:51:00.315Z,3.90
2022-08-05T00:54:00.133Z,4.30
2022-08-05T00:56:25.613Z,4.00
2022-08-05T00:58:53.705Z,4.32
2022-08-05T01:01:24.990Z,4.40
2022-08-05T01:04:13.725Z,4.22
2022-08-05T01:06:43.781Z,4.50
2022-08-05T01:11:52.213Z,4.05
2022-08-05T01:14:31.652Z,4.40
2022-08-05T01:17:11.720Z,4.70
2022-08-05T01:20:00.949Z,4.85
2022-08-05T01:22:49.849Z,4.40
2022-08-05T01:25:57.867Z,4.68
2022-08-05T01:28:52.521Z,4.75
2022-08-05T01:31:53.026Z,4.10
2022-08-05T01:34:26.794Z,4.22
2022-08-05T01:37:24.792Z,4.25
2022-08-05T01:39:59.117Z,4.40
2022-08-05T01:42:29.879Z,4.47
2022-08-05T01:45:03.573Z,4.00
2022-08-05T01:47:43.458Z,4.60
2022-08-05T01:50:35.135Z,3.75
2022-08-05T01:53:10.066Z,3.78
2022-08-05T01:55:42.156Z,4.72
2022-08-05T01:58:15.788Z,3.97
2022-08-05T02:00:51.710Z,4.13
2022-08-05T02:03:37.084Z,3.50
2022-08-05T02:06:33.346Z,3.92
2022-08-05T02:08:59.111Z,3.78
2022-08-05T02:11:47.891Z,4.03
2022-08-05T02:14:40.061Z,3.80
2022-08-05T02:18:30.855Z,3.75
2022-08-05T02:20:23.352Z,3.42
2022-08-05T02:23:01.601Z,4.13
2022-08-05T02:25:49.355Z,3.90
2022-08-05T02:28:29.148Z,3.95
2022-08-05T02:31:14.409Z,3.50
2022-08-05T02:33:57.460Z,3.67
2022-08-05T02:36:31.908Z,3.00
2022-08-05T02:39:04.169Z,3.38
2022-08-05T02:41:57.503Z,3.03
2022-08-05T02:44:31.872Z,3.08
2022-08-05T02:47:01.277Z,2.97
2022-08-05T02:49:42.292Z,2.75
2022-08-05T02:52:30.064Z,3.13
2022-08-05T02:55:01.783Z,3.08
2022-08-05T02:58:20.022Z,2.83
2022-08-05T03:00:23.089Z,3.20
2022-08-05T03:02:57.924Z,3.15
2022-08-05T03:06:57.086Z,2.90
2022-08-05T03:08:16.976Z,3.08
2022-08-05T03:11:53.272Z,2.83
2022-08-05T03:13:51.928Z,3.20
2022-08-05T03:16:35.992Z,3.45
2022-08-05T03:19:12.709Z,3.63
2022-08-05T03:21:48.939Z,3.05
2022-08-05T03:24:31.701Z,3.08
2022-08-05T03:27:02.188Z,3.25
2022-08-05T03:29:45.185Z,3.13
2022-08-05T03:32:31.017Z,3.20
2022-08-05T03:35:00.763Z,3.30
2022-08-05T03:37:30.913Z,3.38
2022-08-05T03:43:01.439Z,3.40
2022-08-05T03:45:57.110Z,3.22
2022-08-05T03:48:28.930Z,3.45
2022-08-05T03:52:37.527Z,3.47
2022-08-05T03:56:00.760Z,3.10
2022-08-05T03:56:53.463Z,3.70
2022-08-05T03:59:47.639Z,3.65
2022-08-05T04:02:38.390Z,3.63
2022-08-05T04:05:10.290Z,3.15
2022-08-05T04:07:57.416Z,3.20
2022-08-05T04:10:37.177Z,3.25
2022-08-05T04:13:07.915Z,3.15
2022-08-05T04:15:37.917Z,3.28
2022-08-05T04:20:58.025Z,3.40
2022-08-05T04:24:01.099Z,3.28
2022-08-05T04:26:17.703Z,3.33
2022-08-05T04:28:51.380Z,3.58
2022-08-05T04:31:20.739Z,3.28
2022-08-05T04:34:18.609Z,3.20
2022-08-05T04:36:44.710Z,3.38
2022-08-05T04:39:14.681Z,3.10
2022-08-05T04:41:42.527Z,3.25
2022-08-05T04:44:12.485Z,3.30
2022-08-05T04:46:40.800Z,3.30
2022-08-05T04:49:16.458Z,3.15
2022-08-05T04:51:44.631Z,3.58
2022-08-05T04:54:14.817Z,3.00
2022-08-05T04:56:44.513Z,2.90
2022-08-05T04:59:26.686Z,2.80
2022-08-05T05:02:07.456Z,3.10
2022-08-05T05:04:51.646Z,2.83
2022-08-05T05:07:29.334Z,3.08
2022-08-05T05:10:04.278Z,3.20
2022-08-05T05:12:32.913Z,2.85
2022-08-05T05:15:03.844Z,2.33
2022-08-05T05:17:55.688Z,2.30
2022-08-05T05:20:28.662Z,2.35
2022-08-05T05:23:08.389Z,2.05
2022-08-05T05:25:49.397Z,1.98
2022-08-05T05:28:19.922Z,1.90
2022-08-05T05:30:49.694Z,1.90
2022-08-05T05:33:23.289Z,1.70
2022-08-05T05:35:51.888Z,1.73
2022-08-05T05:38:22.635Z,1.73
2022-08-05T05:40:57.275Z,1.90
2022-08-05T05:43:54.384Z,1.50
2022-08-05T05:46:15.957Z,1.63
2022-08-05T05:48:46.307Z,1.70
2022-08-05T05:51:21.423Z,1.80
2022-08-05T05:53:57.997Z,1.60
2022-08-05T05:56:34.127Z,2.05
2022-08-05T05:59:07.711Z,2.03
2022-08-05T06:01:40.989Z,2.05
2022-08-05T06:04:25.720Z,1.80
2022-08-05T06:06:53.701Z,1.95
2022-08-05T06:09:35.347Z,1.63
2022-08-05T06:12:09.852Z,2.10
2022-08-05T06:14:40.392Z,1.88
2022-08-05T06:17:21.945Z,1.90
2022-08-05T06:19:56.588Z,2.43
2022-08-05T06:22:30.253Z,1.90
2022-08-05T06:25:59.642Z,2.20
2022-08-05T06:28:11.645Z,1.85
2022-08-05T06:30:42.247Z,2.42
2022-08-05T06:33:10.792Z,2.00
2022-08-05T06:36:03.715Z,2.60
2022-08-05T06:38:35.854Z,2.30
2022-08-05T06:41:07.803Z,2.72
2022-08-05T06:43:51.753Z,3.00
2022-08-05T06:46:29.805Z,2.55
2022-08-05T06:49:01.093Z,2.90
2022-08-05T06:51:31.347Z,2.80
2022-08-05T06:54:01.922Z,2.65
2022-08-05T06:56:34.658Z,2.30
2022-08-05T06:59:09.815Z,2.75
2022-08-05T07:01:40.769Z,2.78
2022-08-05T07:04:10.809Z,2.83
2022-08-05T07:06:42.194Z,2.40
2022-08-05T07:09:10.161Z,3.00
2022-08-05T07:11:39.713Z,2.25
2022-08-05T07:14:29.321Z,2.22
2022-08-05T07:17:58.540Z,2.28
2022-08-05T07:20:32.293Z,2.20
2022-08-05T07:22:39.197Z,2.05
2022-08-05T07:25:22.181Z,1.98
2022-08-05T07:28:03.760Z,2.10
2022-08-05T07:30:40.093Z,2.10
2022-08-05T07:33:17.112Z,1.80
2022-08-05T07:36:04.203Z,1.92
2022-08-05T07:38:43.195Z,1.88
2022-08-05T07:42:07.780Z,1.85
2022-08-05T07:44:18.660Z,1.65
2022-08-05T07:46:49.673Z,1.70
2022-08-05T07:49:18.891Z,1.55
2022-08-05T07:51:53.200Z,1.55
2022-08-05T07:54:33.436Z,1.50
2022-08-05T07:57:16.854Z,1.30
2022-08-05T07:59:51.857Z,1.40
2022-08-05T08:02:31.146Z,1.20
2022-08-05T08:05:18.010Z,1.40
2022-08-05T08:07:59.713Z,1.38
2022-08-05T08:10:29.387Z,1.40
2022-08-05T08:12:59.223Z,1.55
2022-08-05T08:16:33.305Z,1.48
2022-08-05T08:18:20.952Z,1.23
2022-08-05T08:21:01.827Z,1.10
2022-08-05T08:24:01.006Z,1.35
2022-08-05T08:26:29.560Z,1.30
2022-08-05T08:29:21.521Z,1.13
2022-08-05T08:31:48.362Z,1.20
2022-08-05T08:34:18.677Z,1.20
2022-08-05T08:36:54.698Z,1.40
2022-08-05T08:39:24.753Z,1.13
2022-08-05T08:41:59.863Z,1.10
2022-08-05T08:45:19.740Z,1.10
2022-08-05T08:48:05.785Z,0.80
2022-08-05T08:50:30.936Z,0.93
2022-08-05T08:53:07.870Z,1.05
2022-08-05T08:56:03.479Z,0.80
2022-08-05T08:58:43.454Z,0.80
2022-08-05T09:01:17.466Z,0.90
2022-08-05T09:03:55.194Z,1.20
2022-08-05T09:06:29.509Z,1.17
2022-08-05T09:11:52.552Z,1.10
2022-08-05T09:14:59.037Z,0.80
2022-08-05T09:17:16.138Z,1.10
2022-08-05T09:20:02.943Z,0.80
2022-08-05T09:23:09.301Z,0.70
2022-08-05T09:26:02.416Z,0.98
2022-08-05T09:28:32.500Z,0.90
2022-08-05T09:31:22.440Z,0.80
2022-08-05T09:34:00.268Z,1.10
2022-08-05T09:36:59.174Z,0.98
2022-08-05T09:39:45.156Z,0.90
2022-08-05T09:42:28.242Z,0.95
2022-08-05T09:45:17.176Z,0.85
2022-08-05T09:47:55.197Z,0.90
2022-08-05T09:50:44.428Z,0.90
2022-08-05T09:53:23.103Z,0.80
2022-08-05T09:56:12.738Z,0.80
2022-08-05T09:58:41.894Z,0.80
2022-08-05T10:01:14.942Z,1.00
2022-08-05T10:04:00.962Z,0.85
2022-08-05T10:06:29.053Z,0.93
2022-08-05T10:09:27.736Z,0.75
2022-08-05T10:12:30.969Z,0.80
2022-08-05T10:15:20.643Z,0.80
2022-08-05T10:18:06.393Z,1.13
2022-08-05T10:20:40.299Z,0.93
2022-08-05T10:23:34.691Z,1.00
2022-08-05T10:26:04.629Z,0.90
2022-08-05T10:28:38.600Z,0.90
2022-08-05T10:32:49.009Z,0.60
2022-08-05T10:33:55.432Z,0.90
2022-08-05T10:36:25.861Z,0.70
2022-08-05T10:39:10.211Z,0.73
2022-08-05T10:42:07.748Z,0.90
2022-08-05T10:44:43.677Z,0.60
2022-08-05T10:47:26.708Z,0.70
2022-08-05T10:50:31.834Z,0.90
2022-08-05T10:53:01.669Z,0.80
2022-08-05T10:55:32.938Z,0.73
2022-08-05T10:58:20.620Z,0.75
2022-08-05T11:00:55.359Z,0.68
2022-08-05T11:03:31.204Z,1.00
2022-08-05T11:06:14.566Z,0.60
2022-08-05T11:09:16.673Z,0.70
2022-08-05T11:11:53.661Z,0.82
2022-08-05T11:14:57.502Z,0.63
2022-08-05T11:17:58.000Z,0.90
2022-08-05T11:20:45.492Z,0.88
2022-08-05T11:24:04.417Z,0.70
2022-08-05T11:26:35.893Z,0.80
2022-08-05T11:29:12.984Z,0.80
2022-08-05T11:31:58.419Z,0.77
2022-08-05T11:34:51.393Z,0.85
2022-08-05T11:38:30.913Z,0.70
2022-08-05T11:41:03.663Z,0.80
2022-08-05T11:44:06.656Z,0.70
2022-08-05T11:47:09.380Z,0.77
2022-08-05T11:49:39.652Z,1.08
2022-08-05T11:52:11.634Z,0.60
2022-08-05T11:54:41.602Z,1.65
2022-08-05T11:57:24.772Z,0.65
2022-08-05T11:59:54.634Z,1.00
2022-08-05T12:02:30.952Z,0.80
2022-08-05T12:05:06.805Z,0.82
2022-08-05T12:08:08.620Z,0.80
2022-08-05T12:10:43.482Z,0.95
2022-08-05T12:13:17.214Z,0.85
2022-08-05T12:15:58.159Z,0.90
2022-08-05T12:18:52.137Z,0.80
2022-08-05T12:21:31.946Z,0.70
2022-08-05T12:24:11.401Z,0.75
2022-08-05T12:26:44.608Z,1.00
2022-08-05T12:29:22.622Z,0.80
2022-08-05T12:31:57.605Z,0.90
2022-08-05T12:37:10.968Z,0.80
2022-08-05T12:39:51.625Z,0.80
2022-08-05T12:42:21.448Z,0.77
2022-08-05T12:45:01.090Z,0.60
2022-08-05T12:47:31.090Z,0.60
2022-08-05T12:50:03.753Z,0.70
2022-08-05T12:52:38.848Z,0.73
2022-08-05T12:55:25.477Z,0.80
2022-08-05T12:58:49.558Z,0.90
2022-08-05T13:02:00.630Z,0.90
2022-08-05T13:03:41.941Z,0.68
2022-08-05T13:06:17.858Z,0.93
2022-08-05T13:08:52.333Z,0.60
2022-08-05T13:12:01.872Z,0.85
2022-08-05T13:14:24.902Z,0.90
2022-08-05T13:17:11.569Z,0.60
2022-08-05T13:19:51.964Z,0.55
2022-08-05T13:22:28.105Z,0.90
2022-08-05T13:25:05.795Z,0.80
2022-08-05T13:27:40.434Z,0.90
2022-08-05T13:30:35.656Z,0.82
2022-08-05T13:33:01.423Z,0.80
2022-08-05T13:35:50.449Z,1.00
2022-08-05T13:38:30.859Z,0.68
2022-08-05T13:41:02.077Z,0.85
2022-08-05T13:43:44.189Z,0.80
2022-08-05T13:46:14.447Z,0.60
2022-08-05T13:48:58.359Z,0.80
2022-08-05T13:51:36.362Z,0.80
2022-08-05T13:54:12.352Z,0.70
2022-08-05T13:56:45.218Z,1.00
2022-08-05T13:59:24.498Z,0.73
2022-08-05T14:02:00.166Z,0.70
2022-08-05T14:04:54.848Z,0.70
2022-08-05T14:07:59.871Z,0.80
2022-08-05T14:10:18.798Z,0.43
2022-08-05T14:16:09.128Z,0.60
2022-08-05T14:18:06.409Z,0.90
2022-08-05T14:20:43.349Z,0.82
2022-08-05T14:23:25.222Z,0.80
2022-08-05T14:25:59.711Z,0.60
2022-08-05T14:28:29.723Z,0.63
2022-08-05T14:31:00.501Z,0.82
2022-08-05T14:33:56.811Z,0.80
2022-08-05T14:36:21.368Z,0.88
2022-08-05T14:38:50.802Z,0.93
2022-08-05T14:41:19.228Z,0.75
2022-08-05T14:43:59.324Z,0.70
2022-08-05T14:46:37.219Z,0.70
2022-08-05T14:49:08.051Z,0.90
2022-08-05T14:51:42.547Z,0.90
2022-08-05T14:54:30.132Z,1.00
2022-08-05T14:57:05.142Z,0.75
2022-08-05T14:59:35.349Z,0.55
2022-08-05T15:02:14.903Z,0.70
2022-08-05T15:04:44.821Z,0.90
2022-08-05T15:08:11.445Z,1.00
2022-08-05T15:10:03.201Z,0.82
2022-08-05T15:12:45.775Z,0.70
2022-08-05T15:15:54.152Z,0.90
2022-08-05T15:18:09.137Z,0.90
2022-08-05T15:20:39.928Z,1.00
2022-08-05T15:23:11.787Z,0.60
2022-08-05T15:25:51.316Z,0.70
2022-08-05T15:28:27.107Z,0.80
2022-08-05T15:30:56.600Z,0.80
2022-08-05T15:34:04.643Z,1.13
2022-08-05T15:36:17.469Z,1.20
2022-08-05T15:41:00.281Z,1.10
2022-08-05T15:41:58.513Z,0.80
2022-08-05T15:44:30.427Z,0.80
2022-08-05T15:47:01.489Z,0.90
2022-08-05T15:49:40.962Z,1.10
2022-08-05T15:52:52.275Z,1.13
2022-08-05T15:55:10.300Z,1.27
2022-08-05T15:57:43.791Z,1.00
2022-08-05T16:00:16.901Z,0.88
2022-08-05T16:02:54.792Z,0.82
2022-08-05T16:05:28.378Z,1.20
2022-08-05T16:07:57.628Z,1.10
2022-08-05T16:10:26.947Z,1.08
2022-08-05T16:12:56.261Z,0.88
2022-08-05T16:15:24.711Z,1.20
2022-08-05T16:18:04.106Z,0.90
2022-08-05T16:20:36.945Z,0.95
2022-08-05T16:23:08.673Z,1.00
2022-08-05T16:25:37.784Z,0.80
2022-08-05T16:28:10.247Z,0.80
2022-08-05T16:30:38.974Z,0.80
2022-08-05T16:33:09.643Z,1.05
2022-08-05T16:35:42.466Z,0.80
2022-08-05T16:38:18.662Z,0.98
2022-08-05T16:41:00.219Z,0.70
2022-08-05T16:43:32.059Z,0.73
2022-08-05T16:46:23.961Z,0.80
2022-08-05T16:48:49.819Z,0.80
2022-08-05T16:51:19.713Z,0.80
2022-08-05T16:54:02.438Z,0.88
2022-08-05T16:56:36.263Z,1.00
2022-08-05T16:59:15.734Z,0.90
2022-08-05T17:01:53.802Z,0.93
2022-08-05T17:04:29.625Z,1.00
2022-08-05T17:07:03.614Z,0.80
2022-08-05T17:09:58.497Z,0.80
2022-08-05T17:12:51.882Z,0.82
2022-08-05T17:15:19.506Z,0.80
2022-08-05T17:18:02.128Z,0.90
2022-08-05T17:20:36.411Z,0.80
2022-08-05T17:24:03.113Z,0.80
2022-08-05T17:26:14.259Z,0.90
2022-08-05T17:28:51.129Z,0.80
2022-08-05T17:31:24.644Z,1.70
2022-08-05T17:34:12.257Z,1.02
2022-08-05T17:36:46.573Z,1.10
2022-08-05T17:39:24.194Z,1.00
2022-08-05T17:42:18.348Z,0.70
2022-08-05T17:44:55.637Z,0.95
2022-08-05T17:47:23.835Z,1.30
2022-08-05T17:50:03.720Z,1.48
2022-08-05T17:52:35.000Z,1.27
2022-08-05T17:55:27.281Z,0.90
2022-08-05T17:58:09.357Z,1.00
2022-08-05T18:00:51.154Z,1.00
2022-08-05T18:03:56.149Z,1.17
2022-08-05T18:06:15.589Z,1.30
2022-08-05T18:08:52.321Z,1.33
2022-08-05T18:11:32.576Z,1.30
2022-08-05T18:14:20.599Z,0.88
2022-08-05T18:20:16.048Z,1.00
2022-08-05T18:22:54.455Z,1.00
2022-08-05T18:25:32.744Z,0.90
2022-08-05T18:28:16.528Z,1.10
2022-08-05T18:30:53.570Z,1.10
2022-08-05T18:33:37.557Z,1.48
2022-08-05T18:36:20.885Z,1.20
2022-08-05T18:39:02.440Z,1.30
2022-08-05T18:41:56.591Z,1.23
2022-08-05T18:44:33.233Z,1.10
2022-08-05T18:47:05.074Z,1.20
2022-08-05T18:50:00.167Z,0.90
2022-08-05T18:52:35.568Z,1.00
2022-08-05T18:55:13.653Z,1.00
2022-08-05T18:57:52.634Z,1.05
2022-08-05T19:00:30.020Z,1.00
2022-08-05T19:03:09.498Z,1.10
2022-08-05T19:06:12.763Z,1.13
2022-08-05T19:08:42.533Z,1.25
2022-08-05T19:11:14.883Z,1.17
2022-08-05T19:13:47.895Z,1.10
2022-08-05T19:16:29.427Z,1.00
2022-08-05T19:19:08.808Z,1.00
2022-08-05T19:21:43.684Z,1.33
2022-08-05T19:24:16.491Z,1.00
2022-08-05T19:27:09.309Z,1.38
2022-08-05T19:29:44.115Z,0.90
2022-08-05T19:32:17.878Z,1.58
2022-08-05T19:37:34.902Z,1.20
2022-08-05T19:40:31.014Z,1.50
2022-08-05T19:44:03.971Z,0.90
2022-08-05T19:45:56.202Z,1.00
2022-08-05T19:48:27.307Z,1.25
2022-08-05T19:50:59.850Z,1.10
2022-08-05T19:54:04.288Z,1.00
2022-08-05T19:56:48.533Z,1.10
2022-08-05T19:59:55.368Z,1.23
2022-08-05T20:02:24.652Z,1.33
2022-08-05T20:05:04.692Z,1.00
2022-08-05T20:07:46.988Z,1.00
2022-08-05T20:10:26.861Z,1.20
2022-08-05T20:12:58.065Z,1.30
2022-08-05T20:15:52.158Z,1.20
2022-08-05T20:18:33.968Z,1.17
2022-08-05T20:21:07.092Z,1.20
2022-08-05T20:23:53.178Z,1.33
2022-08-05T20:26:24.789Z,1.23
2022-08-05T20:29:06.647Z,1.30
2022-08-05T20:31:58.001Z,0.93
2022-08-05T20:34:26.825Z,1.20
2022-08-05T20:37:04.824Z,1.25
2022-08-05T20:39:51.563Z,1.73
2022-08-05T20:42:21.931Z,1.20
2022-08-05T20:44:50.205Z,1.00
2022-08-05T20:47:32.743Z,1.27
2022-08-05T20:50:02.504Z,1.40
2022-08-05T20:52:37.783Z,1.20
2022-08-05T20:55:56.117Z,1.52
2022-08-05T21:01:54.083Z,1.40
2022-08-05T21:05:38.036Z,1.30
2022-08-05T21:07:55.269Z,1.20
2022-08-05T21:10:24.948Z,1.33
2022-08-05T21:13:48.452Z,1.20
2022-08-05T21:16:11.580Z,1.33
2022-08-05T21:18:49.446Z,1.45
2022-08-05T21:21:20.736Z,1.30
2022-08-05T21:23:54.728Z,1.10
2022-08-05T21:26:22.874Z,1.20
2022-08-05T21:29:03.830Z,1.50
2022-08-05T21:31:41.152Z,1.27
2022-08-05T21:34:20.565Z,1.50
2022-08-05T21:36:52.523Z,1.42
2022-08-05T21:39:26.907Z,1.40
2022-08-05T21:42:01.618Z,1.38
2022-08-05T21:47:32.816Z,1.60
2022-08-05T21:50:01.394Z,1.30
2022-08-05T21:52:30.616Z,1.45
2022-08-05T21:55:11.948Z,1.50
2022-08-05T21:57:42.570Z,1.45
2022-08-05T22:00:12.795Z,1.20
2022-08-05T22:02:44.037Z,1.50
2022-08-05T22:05:15.878Z,1.42
2022-08-05T22:07:58.771Z,1.40
2022-08-05T22:10:32.239Z,1.48
2022-08-05T22:14:04.844Z,1.52
2022-08-05T22:16:00.815Z,1.65
2022-08-05T22:18:41.481Z,1.30
2022-08-05T22:21:18.860Z,1.17
2022-08-05T22:24:12.911Z,1.30
2022-08-05T22:27:16.678Z,1.20
2022-08-05T22:29:54.303Z,1.70
2022-08-05T22:32:22.899Z,1.33
2022-08-05T22:34:55.157Z,1.25
2022-08-05T22:37:25.972Z,1.10
2022-08-05T22:40:20.521Z,1.67
2022-08-05T22:42:53.254Z,1.52
2022-08-05T22:45:26.540Z,1.30
2022-08-05T22:47:58.325Z,1.27
2022-08-05T22:50:27.829Z,1.23
2022-08-05T22:52:57.516Z,1.90
2022-08-05T22:55:37.297Z,1.30
2022-08-05T22:58:28.234Z,1.40
2022-08-05T23:00:57.242Z,1.10
2022-08-05T23:03:58.709Z,1.35
2022-08-05T23:06:13.860Z,1.27
2022-08-05T23:08:46.860Z,1.25
2022-08-05T23:11:22.268Z,1.88
2022-08-05T23:13:51.784Z,1.35
2022-08-05T23:16:39.884Z,1.33
2022-08-05T23:19:23.802Z,1.27
2022-08-05T23:21:54.111Z,1.27
2022-08-05T23:24:22.216Z,1.40
2022-08-05T23:26:50.593Z,1.90
2022-08-05T23:29:19.449Z,1.52
2022-08-05T23:31:47.724Z,1.48
2022-08-05T23:34:24.592Z,1.30
2022-08-05T23:36:53.150Z,1.30
2022-08-05T23:39:31.955Z,1.40
2022-08-05T23:42:14.294Z,1.25
2022-08-05T23:44:42.972Z,1.30
2022-08-05T23:47:14.431Z,1.80
2022-08-05T23:49:45.745Z,1.40
2022-08-05T23:52:52.102Z,1.50
2022-08-05T23:55:21.904Z,1.20
2022-08-05T23:57:52.972Z,1.30
